Time;durP1;ratioP1;P1;durP2;ratioP2;P2;SDS_P1;SDS_P2;PMS_P1;PMS_P2;Temp;Humidity;BMP_temperature;BMP_pressure;BME280_temperature;BME280_humidity;BME280_pressure;Samples;Min_cycle;Max_cycle;Signal;HPM_P1;HPM_P2
2022/07/29 00:00:04;;;;;;;2.80;0.87;;;16.50;99.90;;;;;;5063765;28;20209;-75
2022/07/29 00:02:48;;;;;;;2.53;0.90;;;16.40;99.90;;;;;;5072348;28;20232;-75
2022/07/29 00:05:32;;;;;;;1.53;1.10;;;16.30;99.90;;;;;;5073235;28;20218;-75
2022/07/29 00:08:16;;;;;;;2.30;1.10;;;16.40;99.90;;;;;;5077795;28;20294;-75
2022/07/29 00:11:01;;;;;;;4.60;0.93;;;16.50;99.90;;;;;;5075889;28;20232;-75
2022/07/29 00:13:45;;;;;;;3.70;1.20;;;16.20;99.90;;;;;;5063514;28;20211;-76
2022/07/29 00:16:29;;;;;;;1.40;1.00;;;16.20;99.90;;;;;;5069129;28;20755;-74
2022/07/29 00:19:13;;;;;;;2.50;1.27;;;16.30;99.90;;;;;;5070344;28;20394;-75
2022/07/29 00:21:57;;;;;;;4.63;1.67;;;16.30;99.90;;;;;;5079374;28;20410;-75
2022/07/29 00:24:41;;;;;;;4.85;1.20;;;16.40;99.90;;;;;;5069961;28;20526;-74
2022/07/29 00:27:26;;;;;;;2.80;1.20;;;16.30;99.90;;;;;;5070464;28;20210;-75
2022/07/29 00:30:10;;;;;;;2.40;1.10;;;16.20;99.90;;;;;;5066157;28;20763;-75
2022/07/29 00:32:54;;;;;;;4.20;1.27;;;16.20;99.90;;;;;;5074669;28;20248;-76
2022/07/29 00:35:44;;;;;;;5.63;1.20;;;16.20;99.90;;;;;;5067146;28;20214;-75
2022/07/29 00:38:29;;;;;;;1.70;1.23;;;16.20;99.90;;;;;;5065437;28;20218;-75
2022/07/29 00:41:13;;;;;;;2.17;1.00;;;16.40;99.90;;;;;;5073452;28;20219;-76
2022/07/29 00:43:57;;;;;;;1.57;1.17;;;16.30;99.90;;;;;;5059963;28;20218;-74
2022/07/29 00:46:41;;;;;;;2.20;1.10;;;16.20;99.90;;;;;;5060133;28;20206;-75
2022/07/29 00:49:25;;;;;;;2.60;0.90;;;16.20;99.90;;;;;;5066062;28;20226;-76
2022/07/29 00:52:10;;;;;;;2.37;1.17;;;16.10;99.90;;;;;;5073555;28;20181;-75
2022/07/29 00:54:54;;;;;;;5.20;1.07;;;16.20;99.90;;;;;;5076899;28;20201;-75
2022/07/29 00:57:41;;;;;;;1.63;1.00;;;16.10;99.90;;;;;;5062628;28;20268;-75
2022/07/29 01:00:27;;;;;;;4.30;1.37;;;16.00;99.90;;;;;;5068782;28;20716;-76
2022/07/29 01:03:11;;;;;;;5.57;0.80;;;16.20;99.90;;;;;;5061943;28;20267;-75
2022/07/29 01:05:55;;;;;;;5.20;1.70;;;16.10;99.90;;;;;;5056904;28;20225;-76
2022/07/29 01:08:40;;;;;;;5.03;1.10;;;16.00;99.90;;;;;;5067580;28;20271;-75
2022/07/29 01:11:25;;;;;;;3.20;1.13;;;16.00;99.90;;;;;;5064859;28;20260;-75
2022/07/29 01:14:09;;;;;;;1.63;1.10;;;16.00;99.90;;;;;;5058595;28;20189;-75
2022/07/29 01:17:10;;;;;;;3.90;1.00;;;16.00;99.90;;;;;;5072045;28;20743;-76
2022/07/29 01:20:26;;;;;;;3.13;1.20;;;16.00;99.90;;;;;;5062582;28;20277;-74
2022/07/29 01:23:28;;;;;;;2.50;1.30;;;16.00;99.90;;;;;;5070419;28;20286;-74
2022/07/29 01:26:46;;;;;;;2.57;1.10;;;15.90;99.90;;;;;;5068980;28;20182;-76
2022/07/29 01:29:35;;;;;;;4.97;1.20;;;16.00;99.90;;;;;;5059903;28;20206;-76
2022/07/29 01:32:23;;;;;;;5.27;1.33;;;15.80;99.90;;;;;;5067851;28;20327;-74
2022/07/29 01:35:18;;;;;;;2.50;1.20;;;15.90;99.90;;;;;;5073378;28;20204;-75
2022/07/29 01:38:23;;;;;;;2.90;1.30;;;15.70;99.90;;;;;;5064685;28;20238;-74
2022/07/29 01:41:12;;;;;;;3.90;1.30;;;15.90;99.90;;;;;;5076721;28;20212;-75
2022/07/29 01:44:11;;;;;;;3.13;1.33;;;15.90;99.90;;;;;;5071104;28;20218;-74
2022/07/29 01:47:00;;;;;;;3.03;1.10;;;15.80;99.90;;;;;;5067288;28;20223;-75
2022/07/29 01:49:51;;;;;;;1.47;0.87;;;15.80;99.90;;;;;;5076895;28;20570;-76
2022/07/29 01:52:49;;;;;;;2.87;1.10;;;15.70;99.90;;;;;;5072234;28;20213;-76
2022/07/29 01:55:38;;;;;;;2.50;1.10;;;15.90;99.90;;;;;;5063537;28;20194;-75
2022/07/29 01:58:24;;;;;;;2.10;1.20;;;15.70;99.90;;;;;;5059530;28;20231;-74
2022/07/29 02:01:11;;;;;;;4.43;1.20;;;15.80;99.90;;;;;;5063291;28;20232;-75
2022/07/29 02:03:57;;;;;;;1.90;0.97;;;15.80;99.90;;;;;;5068747;28;20255;-75
2022/07/29 02:06:44;;;;;;;2.63;1.00;;;15.60;99.90;;;;;;5078954;28;20215;-73
2022/07/29 02:09:30;;;;;;;3.20;0.90;;;15.80;99.90;;;;;;5063228;28;20242;-75
2022/07/29 02:12:17;;;;;;;2.00;0.97;;;15.70;99.90;;;;;;5066735;28;20198;-74
2022/07/29 02:15:04;;;;;;;1.93;1.10;;;15.70;99.90;;;;;;5060726;28;20234;-75
2022/07/29 02:17:59;;;;;;;2.20;1.07;;;15.70;99.90;;;;;;5057820;28;20263;-75
2022/07/29 02:20:47;;;;;;;6.03;1.30;;;15.80;99.90;;;;;;5067509;28;20239;-75
2022/07/29 02:23:34;;;;;;;5.30;1.23;;;15.70;99.90;;;;;;5071566;28;20224;-75
2022/07/29 02:26:23;;;;;;;6.17;1.27;;;15.60;99.90;;;;;;5066600;28;20660;-74
2022/07/29 02:29:10;;;;;;;3.27;1.10;;;15.60;99.90;;;;;;5074165;28;20209;-75
2022/07/29 02:31:57;;;;;;;2.27;1.30;;;15.60;99.90;;;;;;5076202;28;20213;-74
2022/07/29 02:34:43;;;;;;;4.80;1.20;;;15.60;99.90;;;;;;5069221;28;20190;-75
2022/07/29 02:37:28;;;;;;;1.80;0.97;;;15.60;99.90;;;;;;5070896;28;20185;-75
2022/07/29 02:40:16;;;;;;;2.07;1.20;;;15.60;99.90;;;;;;5060770;28;20610;-74
2022/07/29 02:43:02;;;;;;;4.97;0.90;;;15.60;99.90;;;;;;5069209;28;20190;-75
2022/07/29 02:45:51;;;;;;;5.00;1.37;;;15.60;99.90;;;;;;5066752;28;20187;-75
2022/07/29 02:48:40;;;;;;;2.60;1.10;;;15.60;99.90;;;;;;5078843;28;20256;-75
2022/07/29 02:51:32;;;;;;;2.87;1.10;;;15.50;99.90;;;;;;5075735;28;20201;-74
2022/07/29 02:54:32;;;;;;;3.83;1.03;;;15.50;99.90;;;;;;5061179;28;20589;-73
2022/07/29 02:57:26;;;;;;;6.83;1.30;;;15.50;99.90;;;;;;5054863;28;20569;-75
2022/07/29 03:00:12;;;;;;;2.00;1.17;;;15.50;99.90;;;;;;5072267;28;20212;-74
2022/07/29 03:02:59;;;;;;;3.93;1.20;;;15.50;99.90;;;;;;5081438;28;20255;-74
2022/07/29 03:05:43;;;;;;;4.77;1.30;;;15.50;99.90;;;;;;5064249;28;20226;-77
2022/07/29 03:08:28;;;;;;;2.37;1.20;;;15.60;99.90;;;;;;5060912;28;20213;-74
2022/07/29 03:11:13;;;;;;;3.07;1.23;;;15.40;99.90;;;;;;5065718;28;20256;-75
2022/07/29 03:13:58;;;;;;;2.97;1.10;;;15.40;99.90;;;;;;5065687;28;20194;-75
2022/07/29 03:16:42;;;;;;;4.00;1.33;;;15.40;99.90;;;;;;5067538;28;20177;-74
2022/07/29 03:19:27;;;;;;;3.07;1.00;;;15.40;99.90;;;;;;5070196;28;20336;-74
2022/07/29 03:22:12;;;;;;;2.50;1.20;;;15.40;99.90;;;;;;5061597;28;20194;-73
2022/07/29 03:24:56;;;;;;;1.10;1.00;;;15.20;99.90;;;;;;5074896;28;20209;-76
2022/07/29 03:27:40;;;;;;;3.37;1.07;;;15.40;99.90;;;;;;5065121;28;20271;-75
2022/07/29 03:30:25;;;;;;;3.83;1.30;;;15.40;99.90;;;;;;5063458;28;20259;-74
2022/07/29 03:33:09;;;;;;;2.60;1.23;;;15.40;99.90;;;;;;5070465;28;20264;-75
2022/07/29 03:35:53;;;;;;;2.90;1.23;;;15.30;99.90;;;;;;5081633;28;20215;-74
2022/07/29 03:38:39;;;;;;;1.53;1.13;;;15.30;99.90;;;;;;5062092;28;20237;-75
2022/07/29 03:41:25;;;;;;;2.20;1.30;;;15.30;99.90;;;;;;5074057;28;20197;-75
2022/07/29 03:44:09;;;;;;;2.60;1.10;;;15.20;99.90;;;;;;5069776;28;20251;-75
2022/07/29 03:46:57;;;;;;;6.27;1.20;;;15.20;99.90;;;;;;5081624;28;20217;-75
2022/07/29 03:49:44;;;;;;;3.40;1.20;;;15.20;99.90;;;;;;5073702;28;20244;-75
2022/07/29 03:52:28;;;;;;;2.83;1.20;;;15.30;99.90;;;;;;5074601;28;20191;-74
2022/07/29 03:55:13;;;;;;;3.67;1.10;;;15.20;99.90;;;;;;5070722;28;20190;-73
2022/07/29 03:58:00;;;;;;;3.60;1.17;;;15.20;99.90;;;;;;5073081;28;20298;-74
2022/07/29 04:00:45;;;;;;;3.97;1.37;;;15.20;99.90;;;;;;5071158;28;20190;-74
2022/07/29 04:03:30;;;;;;;4.43;1.70;;;15.20;99.90;;;;;;5080885;28;20224;-75
2022/07/29 04:06:14;;;;;;;2.50;1.17;;;15.20;99.90;;;;;;5068771;28;20192;-74
2022/07/29 04:08:58;;;;;;;3.80;1.17;;;15.20;99.90;;;;;;5083935;28;20605;-75
2022/07/29 04:11:42;;;;;;;4.30;1.33;;;15.10;99.90;;;;;;5072213;28;20395;-74
2022/07/29 04:14:26;;;;;;;5.10;1.58;;;15.10;99.90;;;;;;5062022;28;20759;-73
2022/07/29 04:17:10;;;;;;;4.80;1.20;;;15.10;99.90;;;;;;5072651;28;20281;-74
2022/07/29 04:19:54;;;;;;;2.03;1.30;;;15.10;99.90;;;;;;5074843;28;20394;-74
2022/07/29 04:22:40;;;;;;;8.10;1.90;;;15.20;99.90;;;;;;5076584;28;20749;-75
2022/07/29 04:25:23;;;;;;;3.60;1.30;;;15.20;99.90;;;;;;5070350;28;20192;-73
2022/07/29 04:28:09;;;;;;;2.73;1.27;;;15.20;99.90;;;;;;5071397;28;20394;-74
2022/07/29 04:30:53;;;;;;;5.07;1.47;;;15.20;99.90;;;;;;5075085;28;20193;-74
2022/07/29 04:33:37;;;;;;;5.93;1.20;;;15.20;99.90;;;;;;5076817;28;20201;-74
2022/07/29 04:36:21;;;;;;;4.90;1.53;;;15.30;99.90;;;;;;5068143;28;20440;-75
2022/07/29 04:39:05;;;;;;;6.70;1.40;;;15.30;99.90;;;;;;5078393;28;20294;-75
2022/07/29 04:41:50;;;;;;;1.87;1.40;;;15.20;99.90;;;;;;5069402;28;20202;-75
2022/07/29 04:44:34;;;;;;;3.00;1.00;;;15.30;99.90;;;;;;5064723;28;20275;-75
2022/07/29 04:47:18;;;;;;;1.43;1.17;;;15.30;99.90;;;;;;5076316;28;20189;-75
2022/07/29 04:50:02;;;;;;;4.85;1.40;;;15.30;99.90;;;;;;5074757;28;20421;-74
2022/07/29 04:52:46;;;;;;;6.97;1.23;;;15.30;99.90;;;;;;5070371;28;20190;-76
2022/07/29 04:55:30;;;;;;;3.63;1.17;;;15.20;99.90;;;;;;5077050;28;20182;-75
2022/07/29 04:58:15;;;;;;;2.70;0.93;;;15.20;99.90;;;;;;5062243;28;20724;-75
2022/07/29 05:00:59;;;;;;;2.17;1.30;;;15.20;99.90;;;;;;5065072;28;20178;-74
2022/07/29 05:03:44;;;;;;;3.97;1.30;;;15.20;99.90;;;;;;5067830;28;20532;-75
2022/07/29 05:06:29;;;;;;;2.13;1.10;;;15.20;99.90;;;;;;5078537;28;20850;-75
2022/07/29 05:09:13;;;;;;;1.63;1.30;;;15.20;99.90;;;;;;5072736;28;20264;-74
2022/07/29 05:11:57;;;;;;;1.43;1.07;;;15.20;99.90;;;;;;5067886;28;20194;-73
2022/07/29 05:14:41;;;;;;;5.03;1.30;;;15.20;99.90;;;;;;5055515;28;20654;-75
2022/07/29 05:17:26;;;;;;;4.23;1.50;;;15.20;99.90;;;;;;5069708;28;20661;-75
2022/07/29 05:20:10;;;;;;;7.10;1.47;;;15.20;99.90;;;;;;5070745;28;20235;-75
2022/07/29 05:22:55;;;;;;;3.20;1.50;;;15.20;99.90;;;;;;5066009;28;20228;-74
2022/07/29 05:25:40;;;;;;;2.93;1.33;;;15.20;99.90;;;;;;5065127;28;20186;-74
2022/07/29 05:28:24;;;;;;;3.60;1.23;;;15.20;99.90;;;;;;5065334;28;20209;-73
2022/07/29 05:31:08;;;;;;;4.93;1.10;;;15.20;99.90;;;;;;5074826;28;20190;-74
2022/07/29 05:33:52;;;;;;;1.53;1.23;;;15.20;99.90;;;;;;5068625;28;20201;-74
2022/07/29 05:36:36;;;;;;;7.47;1.40;;;15.30;99.90;;;;;;5070000;28;20324;-74
2022/07/29 05:39:20;;;;;;;5.40;1.37;;;15.20;99.90;;;;;;5068472;28;20236;-75
2022/07/29 05:42:11;;;;;;;3.73;1.23;;;15.30;99.90;;;;;;5073765;28;20237;-75
2022/07/29 05:44:56;;;;;;;6.00;1.20;;;15.30;99.90;;;;;;5073186;28;20265;-74
2022/07/29 05:47:40;;;;;;;4.93;1.70;;;15.40;99.90;;;;;;5068595;28;20185;-74
2022/07/29 05:50:24;;;;;;;4.20;1.93;;;15.40;99.90;;;;;;5076785;28;20189;-75
2022/07/29 05:53:08;;;;;;;4.27;1.40;;;15.40;99.90;;;;;;5080144;28;20251;-75
2022/07/29 05:55:52;;;;;;;2.40;1.43;;;15.40;99.90;;;;;;5068579;28;20205;-75
2022/07/29 05:58:36;;;;;;;5.13;1.40;;;15.50;99.90;;;;;;5073275;28;20704;-74
2022/07/29 06:01:20;;;;;;;4.83;1.40;;;15.50;99.90;;;;;;5058315;28;20213;-75
2022/07/29 06:04:05;;;;;;;4.53;1.60;;;15.50;99.90;;;;;;5073664;28;20699;-73
2022/07/29 06:06:50;;;;;;;2.37;1.20;;;15.60;99.90;;;;;;5048679;28;20457;-74
2022/07/29 06:09:34;;;;;;;3.87;1.50;;;15.60;99.90;;;;;;5042005;28;20805;-75
2022/07/29 06:12:19;;;;;;;3.07;1.60;;;15.70;99.90;;;;;;5046961;28;20221;-75
2022/07/29 06:15:04;;;;;;;2.13;1.20;;;15.70;99.90;;;;;;5053432;28;20546;-73
2022/07/29 06:17:48;;;;;;;3.00;1.70;;;15.70;99.90;;;;;;5050820;28;20256;-75
2022/07/29 06:20:32;;;;;;;3.17;1.50;;;15.80;99.90;;;;;;5039057;28;20199;-76
2022/07/29 06:23:18;;;;;;;3.00;1.37;;;15.90;99.90;;;;;;5041974;28;20214;-74
2022/07/29 06:26:02;;;;;;;2.00;1.30;;;15.90;99.90;;;;;;5040408;28;20206;-74
2022/07/29 06:28:47;;;;;;;3.40;1.73;;;15.90;99.90;;;;;;5034387;28;20238;-74
2022/07/29 06:31:31;;;;;;;3.73;1.70;;;16.00;99.90;;;;;;5035682;28;20203;-75
2022/07/29 06:34:15;;;;;;;2.73;1.47;;;16.00;99.90;;;;;;5043237;28;20229;-75
2022/07/29 06:37:00;;;;;;;4.13;1.67;;;16.10;99.90;;;;;;5037481;28;20248;-75
2022/07/29 06:39:44;;;;;;;2.20;1.27;;;16.20;99.90;;;;;;5037621;28;20218;-75
2022/07/29 06:42:28;;;;;;;6.17;1.50;;;16.30;99.90;;;;;;5038428;28;20321;-74
2022/07/29 06:45:12;;;;;;;3.03;1.30;;;16.40;99.90;;;;;;5042015;28;20369;-75
2022/07/29 06:47:57;;;;;;;4.93;1.20;;;16.50;99.90;;;;;;5044487;28;20228;-75
2022/07/29 06:50:41;;;;;;;3.57;1.70;;;16.70;99.90;;;;;;5044366;28;20174;-75
2022/07/29 06:53:26;;;;;;;5.10;1.50;;;16.80;99.90;;;;;;5042552;28;20205;-75
2022/07/29 06:56:12;;;;;;;2.97;1.20;;;16.90;99.90;;;;;;5044627;28;20190;-74
2022/07/29 06:58:56;;;;;;;3.33;1.30;;;17.00;99.90;;;;;;5033252;28;20705;-76
2022/07/29 07:01:42;;;;;;;4.73;1.40;;;17.10;99.90;;;;;;5049448;28;20801;-75
2022/07/29 07:04:26;;;;;;;2.77;1.50;;;17.10;99.90;;;;;;5049837;28;20621;-75
2022/07/29 07:07:10;;;;;;;3.77;1.50;;;17.20;99.90;;;;;;5047682;28;20207;-76
2022/07/29 07:09:54;;;;;;;3.13;1.20;;;17.30;99.90;;;;;;5043582;28;20190;-75
2022/07/29 07:12:38;;;;;;;3.13;1.20;;;17.40;99.90;;;;;;5052617;28;20218;-75
2022/07/29 07:15:22;;;;;;;5.50;1.40;;;17.50;99.90;;;;;;5041014;28;20186;-76
2022/07/29 07:18:07;;;;;;;3.17;1.53;;;17.50;99.90;;;;;;5050599;28;20230;-75
2022/07/29 07:20:51;;;;;;;9.07;2.00;;;17.60;99.90;;;;;;5043415;28;20186;-76
2022/07/29 07:23:35;;;;;;;3.23;1.20;;;17.70;99.90;;;;;;5042851;28;20214;-75
2022/07/29 07:26:19;;;;;;;2.40;1.43;;;17.80;99.90;;;;;;5041211;28;20186;-75
2022/07/29 07:29:03;;;;;;;3.30;1.80;;;17.90;99.90;;;;;;5044876;28;20219;-77
2022/07/29 07:31:47;;;;;;;5.20;1.40;;;18.00;99.90;;;;;;5048256;28;20241;-76
2022/07/29 07:34:31;;;;;;;2.43;1.30;;;18.10;99.90;;;;;;5045631;28;20329;-76
2022/07/29 07:37:16;;;;;;;3.57;1.27;;;18.10;99.90;;;;;;5047082;28;20233;-75
2022/07/29 07:40:01;;;;;;;4.13;1.80;;;18.20;99.90;;;;;;5038615;28;20394;-75
2022/07/29 07:42:45;;;;;;;6.18;2.10;;;18.30;99.90;;;;;;5037720;28;20405;-75
2022/07/29 07:45:29;;;;;;;6.10;1.70;;;18.30;99.90;;;;;;5040796;28;20392;-75
2022/07/29 07:48:13;;;;;;;4.85;1.60;;;18.50;99.90;;;;;;5045941;28;20469;-75
2022/07/29 07:50:57;;;;;;;5.55;1.65;;;18.60;99.90;;;;;;5043375;28;20459;-75
2022/07/29 07:53:41;;;;;;;3.10;1.58;;;18.70;99.90;;;;;;5041537;28;20424;-76
2022/07/29 07:56:25;;;;;;;4.72;1.77;;;18.80;99.90;;;;;;5046021;28;20376;-74
2022/07/29 07:59:09;;;;;;;4.90;1.60;;;18.90;99.90;;;;;;5043841;28;20404;-75
2022/07/29 08:01:53;;;;;;;1.77;1.50;;;19.00;99.90;;;;;;5045973;28;20907;-76
2022/07/29 08:04:40;;;;;;;2.53;1.50;;;19.20;99.90;;;;;;5050348;28;20214;-74
2022/07/29 08:07:24;;;;;;;5.00;1.15;;;19.40;99.90;;;;;;5042074;28;20199;-77
2022/07/29 08:10:08;;;;;;;2.90;1.27;;;19.50;99.90;;;;;;5045290;28;20263;-75
2022/07/29 08:12:52;;;;;;;5.10;1.70;;;19.60;99.90;;;;;;5048236;28;20389;-74
2022/07/29 08:15:38;;;;;;;4.88;1.30;;;19.70;99.90;;;;;;5053736;28;20248;-76
2022/07/29 08:18:24;;;;;;;2.97;1.35;;;19.80;99.90;;;;;;5048659;28;20214;-75
2022/07/29 08:21:08;;;;;;;6.03;1.25;;;19.90;99.90;;;;;;5049349;28;20191;-75
2022/07/29 08:23:52;;;;;;;2.60;1.30;;;20.00;99.90;;;;;;5047545;28;20636;-76
2022/07/29 08:26:36;;;;;;;6.35;1.33;;;20.20;99.90;;;;;;5054363;28;20207;-76
2022/07/29 08:29:21;;;;;;;3.63;1.35;;;20.20;99.90;;;;;;5058324;28;20701;-76
2022/07/29 08:32:05;;;;;;;3.20;1.55;;;20.30;99.90;;;;;;5041086;28;20202;-75
2022/07/29 08:34:50;;;;;;;5.40;1.42;;;20.30;99.90;;;;;;5048058;28;20598;-75
2022/07/29 08:37:34;;;;;;;4.68;1.48;;;20.30;99.90;;;;;;5042346;28;20275;-75
2022/07/29 08:40:20;;;;;;;3.33;1.50;;;20.50;99.90;;;;;;5048403;28;20246;-75
2022/07/29 08:43:08;;;;;;;4.35;1.48;;;20.50;99.90;;;;;;5045891;28;20230;-74
2022/07/29 08:45:53;;;;;;;2.75;1.08;;;20.60;99.90;;;;;;5040177;28;20195;-76
2022/07/29 08:48:38;;;;;;;2.65;1.38;;;20.80;99.90;;;;;;5051863;28;20269;-76
2022/07/29 08:51:25;;;;;;;3.25;1.30;;;20.80;99.90;;;;;;5042347;28;20187;-76
2022/07/29 08:54:10;;;;;;;4.50;1.40;;;20.90;99.90;;;;;;5048347;28;20202;-74
2022/07/29 08:56:55;;;;;;;6.25;1.30;;;21.00;99.90;;;;;;5048233;28;20348;-75
2022/07/29 08:59:41;;;;;;;3.88;1.50;;;21.10;99.90;;;;;;5043009;28;20213;-75
2022/07/29 09:02:29;;;;;;;2.33;1.10;;;21.10;99.90;;;;;;5041089;28;20640;-75
2022/07/29 09:05:13;;;;;;;6.38;1.58;;;21.10;99.90;;;;;;5046755;28;20244;-75
2022/07/29 09:07:57;;;;;;;2.38;1.20;;;21.30;99.90;;;;;;5048362;28;20253;-75
2022/07/29 09:10:42;;;;;;;4.55;1.17;;;21.30;99.90;;;;;;5050854;28;20205;-76
2022/07/29 09:13:26;;;;;;;4.32;1.30;;;21.30;99.90;;;;;;5040898;28;20230;-76
2022/07/29 09:16:10;;;;;;;7.35;1.58;;;21.40;99.90;;;;;;5048259;28;20317;-76
2022/07/29 09:18:54;;;;;;;3.70;1.40;;;21.40;99.90;;;;;;5049958;28;20230;-75
2022/07/29 09:21:59;;;;;;;7.13;1.38;;;21.60;99.90;;;;;;5049916;28;20202;-76
2022/07/29 09:24:46;;;;;;;2.60;1.35;;;21.70;99.90;;;;;;5041491;28;20417;-76
2022/07/29 09:27:30;;;;;;;3.53;1.58;;;21.80;99.90;;;;;;5055047;28;20247;-75
2022/07/29 09:30:15;;;;;;;4.40;1.13;;;21.80;99.90;;;;;;5036265;28;20226;-75
2022/07/29 09:33:01;;;;;;;2.30;1.30;;;21.90;99.90;;;;;;5047927;28;20304;-76
2022/07/29 09:35:45;;;;;;;6.57;1.40;;;21.90;99.90;;;;;;5052951;28;20254;-76
2022/07/29 09:38:29;;;;;;;5.32;1.52;;;22.00;99.90;;;;;;5043624;28;20311;-76
2022/07/29 09:41:13;;;;;;;5.30;1.55;;;22.10;99.90;;;;;;5053847;28;20182;-76
2022/07/29 09:43:59;;;;;;;9.25;1.88;;;22.20;99.90;;;;;;5046212;28;20210;-76
2022/07/29 09:47:07;;;;;;;1.75;1.33;;;22.30;99.90;;;;;;5040454;28;20198;-75
2022/07/29 09:50:00;;;;;;;4.88;1.52;;;22.30;99.90;;;;;;5040415;28;20250;-75
2022/07/29 09:52:49;;;;;;;3.78;1.20;;;22.40;99.90;;;;;;5040583;28;20272;-75
2022/07/29 09:55:49;;;;;;;2.65;1.30;;;22.50;99.90;;;;;;5041286;28;20210;-75
2022/07/29 09:58:34;;;;;;;6.20;1.20;;;22.60;99.90;;;;;;5041187;28;20223;-76
2022/07/29 10:01:27;;;;;;;6.47;1.85;;;22.70;99.90;;;;;;5043196;28;20291;-76
2022/07/29 10:04:12;;;;;;;8.48;1.40;;;22.80;99.90;;;;;;5043432;28;20209;-76
2022/07/29 10:06:59;;;;;;;5.93;1.30;;;23.00;99.90;;;;;;5048947;28;20559;-76
2022/07/29 10:09:52;;;;;;;2.72;1.13;;;23.10;99.90;;;;;;5051495;28;20207;-75
2022/07/29 10:12:49;;;;;;;3.85;1.20;;;23.30;99.90;;;;;;5044440;28;20191;-76
2022/07/29 10:15:38;;;;;;;3.45;1.30;;;23.30;99.90;;;;;;5048455;28;20551;-76
2022/07/29 10:18:22;;;;;;;2.75;1.10;;;23.40;99.90;;;;;;5050874;28;20246;-76
2022/07/29 10:21:07;;;;;;;4.10;1.35;;;23.50;99.90;;;;;;5052376;28;20694;-76
2022/07/29 10:23:53;;;;;;;3.30;1.42;;;23.60;99.90;;;;;;5037982;28;20291;-76
2022/07/29 10:26:40;;;;;;;3.05;1.17;;;23.60;99.90;;;;;;5043249;28;20400;-76
2022/07/29 10:29:25;;;;;;;3.58;1.20;;;23.60;99.90;;;;;;5032624;28;20223;-76
2022/07/29 10:32:33;;;;;;;3.70;1.30;;;23.70;99.90;;;;;;5047634;28;20240;-75
2022/07/29 10:35:20;;;;;;;2.22;1.17;;;23.70;99.90;;;;;;5046625;28;20253;-75
2022/07/29 10:38:25;;;;;;;5.20;1.30;;;23.80;99.90;;;;;;5047817;28;20206;-75
2022/07/29 10:41:27;;;;;;;3.17;1.40;;;23.90;99.90;;;;;;5051344;28;20177;-76
2022/07/29 10:44:17;;;;;;;3.97;1.10;;;24.00;99.90;;;;;;5046317;28;20218;-76
2022/07/29 10:47:01;;;;;;;2.70;1.05;;;24.10;99.90;;;;;;5047215;28;20628;-74
2022/07/29 10:49:57;;;;;;;6.22;1.40;;;24.20;99.90;;;;;;5049286;28;20222;-77
2022/07/29 10:52:52;;;;;;;3.60;1.40;;;24.30;99.90;;;;;;5046402;28;20291;-76
2022/07/29 10:55:48;;;;;;;3.13;1.45;;;24.30;99.90;;;;;;5045174;28;20187;-76
2022/07/29 10:58:32;;;;;;;5.85;1.30;;;24.40;99.90;;;;;;5041056;28;20218;-75
2022/07/29 11:01:29;;;;;;;4.38;1.33;;;24.40;99.90;;;;;;5042829;28;20190;-75
2022/07/29 11:04:14;;;;;;;4.82;1.40;;;24.40;99.90;;;;;;5043110;28;20250;-76
2022/07/29 11:06:58;;;;;;;7.00;1.55;;;24.30;99.90;;;;;;5057197;28;20274;-76
2022/07/29 11:09:45;;;;;;;5.53;1.88;;;24.30;99.90;;;;;;5050402;28;20337;-78
2022/07/29 11:12:38;;;;;;;7.47;1.27;;;24.30;99.90;;;;;;5046217;28;20206;-78
2022/07/29 11:15:23;;;;;;;3.15;1.27;;;24.40;99.90;;;;;;5041784;28;20199;-78
2022/07/29 11:18:08;;;;;;;7.93;1.42;;;24.50;99.90;;;;;;5045107;28;20222;-78
2022/07/29 11:20:55;;;;;;;6.35;1.33;;;24.50;99.90;;;;;;5049261;28;20193;-78
2022/07/29 11:23:42;;;;;;;5.43;1.55;;;24.60;99.90;;;;;;5048439;28;20234;-78
2022/07/29 11:26:27;;;;;;;4.82;1.33;;;24.60;99.90;;;;;;5042035;28;20186;-75
2022/07/29 11:29:21;;;;;;;5.00;1.40;;;24.70;99.90;;;;;;5048090;28;20222;-77
2022/07/29 11:32:12;;;;;;;5.07;1.17;;;24.80;99.90;;;;;;5048340;28;20190;-82
2022/07/29 11:35:25;;;;;;;3.47;1.25;;;24.80;99.90;;;;;;5048893;28;20199;-77
2022/07/29 11:38:23;;;;;;;4.07;1.23;;;24.80;99.90;;;;;;5045807;28;20264;-78
2022/07/29 11:41:26;;;;;;;3.72;1.55;;;24.80;99.90;;;;;;5050281;28;20245;-79
2022/07/29 11:44:10;;;;;;;2.92;1.48;;;24.80;99.90;;;;;;5044962;28;20225;-78
2022/07/29 11:46:54;;;;;;;2.55;1.40;;;24.80;99.90;;;;;;5047058;28;20278;-79
2022/07/29 11:49:45;;;;;;;3.35;1.40;;;24.80;99.90;;;;;;5043077;28;20793;-78
2022/07/29 11:52:36;;;;;;;2.88;1.30;;;24.80;99.90;;;;;;5041901;28;20183;-78
2022/07/29 11:55:24;;;;;;;2.55;1.10;;;24.90;99.90;;;;;;5042397;28;20274;-77
2022/07/29 11:58:08;;;;;;;3.10;1.20;;;24.90;99.90;;;;;;5044964;28;20214;-76
2022/07/29 12:00:53;;;;;;;4.95;1.30;;;24.90;99.90;;;;;;5041429;28;20195;-75
2022/07/29 12:03:37;;;;;;;2.45;1.00;;;24.90;99.90;;;;;;5047963;28;20214;-76
2022/07/29 12:06:21;;;;;;;4.32;1.27;;;24.90;99.90;;;;;;5045407;28;20198;-76
2022/07/29 12:09:09;;;;;;;3.05;1.27;;;24.90;99.90;;;;;;5048123;28;20630;-76
2022/07/29 12:11:58;;;;;;;4.35;1.48;;;24.90;99.90;;;;;;5043083;28;20224;-77
2022/07/29 12:14:46;;;;;;;2.58;1.30;;;24.90;99.90;;;;;;5037085;28;20222;-76
2022/07/29 12:17:32;;;;;;;4.07;1.40;;;24.90;99.90;;;;;;5039043;28;20222;-76
2022/07/29 12:20:29;;;;;;;3.13;1.40;;;24.90;99.90;;;;;;5048223;28;20213;-76
2022/07/29 12:23:14;;;;;;;4.50;1.75;;;24.90;99.90;;;;;;5046242;28;20199;-76
2022/07/29 12:25:59;;;;;;;5.75;1.35;;;24.90;99.90;;;;;;5051522;28;20199;-75
2022/07/29 12:28:43;;;;;;;5.43;1.50;;;24.80;99.90;;;;;;5047859;28;20294;-77
2022/07/29 12:31:27;;;;;;;5.28;1.23;;;24.80;99.90;;;;;;5049615;28;20279;-76
2022/07/29 12:34:13;;;;;;;2.20;1.17;;;24.90;99.90;;;;;;5053190;28;20191;-76
2022/07/29 12:36:57;;;;;;;3.30;1.20;;;24.80;99.90;;;;;;5046201;28;20222;-76
2022/07/29 12:39:42;;;;;;;4.07;1.30;;;24.80;99.90;;;;;;5049911;28;20237;-76
2022/07/29 12:42:26;;;;;;;4.85;1.75;;;24.80;99.90;;;;;;5048922;28;20226;-76
2022/07/29 12:45:10;;;;;;;3.35;1.42;;;24.80;99.90;;;;;;5049736;28;20218;-76
2022/07/29 12:47:54;;;;;;;3.63;1.20;;;24.70;99.90;;;;;;5048722;28;20215;-76
2022/07/29 12:50:56;;;;;;;2.50;1.42;;;24.80;99.90;;;;;;5044837;28;20214;-76
2022/07/29 12:53:41;;;;;;;5.13;1.85;;;24.80;99.90;;;;;;5039912;28;20258;-76
2022/07/29 12:56:25;;;;;;;5.50;1.52;;;24.80;99.90;;;;;;5047002;28;20740;-76
2022/07/29 12:59:22;;;;;;;6.30;1.33;;;24.80;99.90;;;;;;5047257;28;20219;-76
2022/07/29 13:02:06;;;;;;;5.43;1.30;;;24.80;99.90;;;;;;5050122;28;20222;-75
2022/07/29 13:04:58;;;;;;;1.25;1.15;;;24.70;99.90;;;;;;5043757;28;20207;-77
2022/07/29 13:07:43;;;;;;;4.72;1.38;;;24.70;99.90;;;;;;5048654;28;20210;-76
2022/07/29 13:10:29;;;;;;;5.18;1.50;;;24.70;99.90;;;;;;5046177;28;20207;-76
2022/07/29 13:13:14;;;;;;;4.47;1.55;;;24.70;99.90;;;;;;5050214;28;20294;-77
2022/07/29 13:16:07;;;;;;;6.07;1.50;;;24.70;99.90;;;;;;5051728;28;20203;-75
2022/07/29 13:19:11;;;;;;;6.90;1.70;;;24.70;99.90;;;;;;5037790;28;20222;-76
2022/07/29 13:21:56;;;;;;;6.95;1.30;;;24.60;99.90;;;;;;5045923;28;20207;-76
2022/07/29 13:24:57;;;;;;;7.72;1.33;;;24.50;99.90;;;;;;5039589;28;20278;-76
2022/07/29 13:27:41;;;;;;;6.63;1.92;;;24.50;99.90;;;;;;5045220;28;20186;-76
2022/07/29 13:30:26;;;;;;;4.78;1.55;;;24.40;99.90;;;;;;5043364;28;20189;-76
2022/07/29 13:33:10;;;;;;;2.45;0.98;;;24.40;99.90;;;;;;5049581;28;20198;-76
2022/07/29 13:35:54;;;;;;;4.88;1.75;;;24.40;99.90;;;;;;5044530;28;20302;-76
2022/07/29 13:38:38;;;;;;;5.70;1.55;;;24.40;99.90;;;;;;5041019;28;20234;-76
2022/07/29 13:41:22;;;;;;;3.78;1.80;;;24.30;99.90;;;;;;5050042;28;20194;-76
2022/07/29 13:44:06;;;;;;;5.65;1.70;;;24.40;99.90;;;;;;5041882;28;20218;-76
2022/07/29 13:46:50;;;;;;;3.03;1.80;;;24.30;99.90;;;;;;5047054;28;20187;-76
2022/07/29 13:49:35;;;;;;;3.28;1.30;;;24.30;99.90;;;;;;5040815;28;20641;-75
2022/07/29 13:52:20;;;;;;;2.20;1.15;;;24.30;99.90;;;;;;5042371;28;20189;-75
2022/07/29 13:55:04;;;;;;;4.40;1.30;;;24.30;99.90;;;;;;5045138;28;20574;-76
2022/07/29 13:57:48;;;;;;;2.22;1.10;;;24.20;99.90;;;;;;5038093;28;20222;-76
2022/07/29 14:00:33;;;;;;;4.13;1.33;;;24.20;99.90;;;;;;5048385;28;20206;-76
2022/07/29 14:03:17;;;;;;;2.55;1.30;;;24.20;99.90;;;;;;5046391;28;20285;-76
2022/07/29 14:06:01;;;;;;;6.47;1.60;;;24.20;99.90;;;;;;5039897;28;20286;-76
2022/07/29 14:08:45;;;;;;;6.00;1.40;;;24.10;99.90;;;;;;5052158;28;20261;-75
2022/07/29 14:11:29;;;;;;;7.70;1.30;;;24.10;99.90;;;;;;5044272;28;20266;-75
2022/07/29 14:14:13;;;;;;;4.45;1.45;;;24.10;99.90;;;;;;5036650;28;20291;-76
2022/07/29 14:16:57;;;;;;;5.50;1.33;;;24.00;99.90;;;;;;5045048;28;20729;-76
2022/07/29 14:19:41;;;;;;;3.15;1.15;;;24.10;99.90;;;;;;5044098;28;20243;-76
2022/07/29 14:22:25;;;;;;;4.68;1.20;;;24.00;99.90;;;;;;5050765;28;20261;-75
2022/07/29 14:25:09;;;;;;;2.17;1.17;;;24.00;99.90;;;;;;5043298;28;20210;-76
2022/07/29 14:27:54;;;;;;;6.13;1.52;;;24.00;99.90;;;;;;5048601;28;20237;-75